createdAt,value
2019-02-06T00:00:44.384Z,76.08
2019-02-06T00:03:18.201Z,76.58
2019-02-06T00:05:47.885Z,76.84
2019-02-06T00:08:17.450Z,76.55
2019-02-06T00:10:46.930Z,76.42
2019-02-06T00:13:16.588Z,76.19
2019-02-06T00:15:46.071Z,76.07
2019-02-06T00:18:15.734Z,76.24
2019-02-06T00:20:45.229Z,76.13
2019-02-06T00:23:14.726Z,76.18
2019-02-06T00:25:44.303Z,75.93
2019-02-06T00:28:13.823Z,75.92
2019-02-06T00:30:43.640Z,75.46
2019-02-06T00:33:13.216Z,75.64
2019-02-06T00:35:42.712Z,76.07
2019-02-06T00:38:12.209Z,76.06
2019-02-06T00:40:41.746Z,75.89
2019-02-06T00:43:11.347Z,75.83
2019-02-06T00:45:40.850Z,76.09
2019-02-06T00:48:10.406Z,76.37
2019-02-06T00:50:39.864Z,76.21
2019-02-06T00:53:09.364Z,76.45
2019-02-06T00:55:38.934Z,76.55
2019-02-06T00:58:08.435Z,76.51
2019-02-06T01:00:37.951Z,76.49
2019-02-06T01:03:08.088Z,76.87
2019-02-06T01:05:38.860Z,76.78
2019-02-06T01:08:08.678Z,76.92
2019-02-06T01:10:38.157Z,76.99
2019-02-06T01:13:07.625Z,77.33
2019-02-06T01:15:37.610Z,77.38
2019-02-06T01:18:07.261Z,77.32
2019-02-06T01:20:36.793Z,77.87
2019-02-06T01:23:06.467Z,77.78
2019-02-06T01:25:35.959Z,77.71
2019-02-06T01:28:05.548Z,77.68
2019-02-06T01:30:48.836Z,77.52
2019-02-06T01:33:18.318Z,77.18
2019-02-06T01:35:50.060Z,77.37
2019-02-06T01:38:19.140Z,77.45
2019-02-06T01:40:48.632Z,77.44
2019-02-06T01:43:18.563Z,77.42
2019-02-06T01:45:48.048Z,77.86
2019-02-06T01:48:17.536Z,78.54
2019-02-06T01:50:47.079Z,78.69
2019-02-06T01:53:16.542Z,79.00
2019-02-06T01:55:45.966Z,78.94
2019-02-06T01:58:15.528Z,78.84
2019-02-06T02:00:45.011Z,79.14
2019-02-06T02:03:14.511Z,79.00
2019-02-06T02:05:44.133Z,78.89
2019-02-06T02:08:13.723Z,78.73
2019-02-06T02:10:43.328Z,78.71
2019-02-06T02:13:12.840Z,78.63
2019-02-06T02:15:42.346Z,78.65
2019-02-06T02:18:11.876Z,79.08
2019-02-06T02:20:41.385Z,79.20
2019-02-06T02:23:10.891Z,79.28
2019-02-06T02:25:40.406Z,79.47
2019-02-06T02:28:09.872Z,79.93
2019-02-06T02:30:46.100Z,80.33
2019-02-06T02:33:15.631Z,80.12
2019-02-06T02:35:45.109Z,80.88
2019-02-06T02:38:16.376Z,80.80
2019-02-06T02:40:45.872Z,80.33
2019-02-06T02:43:15.354Z,80.05
2019-02-06T02:45:44.812Z,79.63
2019-02-06T02:48:14.284Z,78.74
2019-02-06T02:50:43.823Z,78.36
2019-02-06T02:53:13.326Z,78.13
2019-02-06T02:55:42.850Z,77.74
2019-02-06T02:58:12.288Z,77.14
2019-02-06T03:01:15.857Z,77.50
2019-02-06T03:04:10.930Z,77.63
2019-02-06T03:06:42.366Z,77.18
2019-02-06T03:09:13.403Z,77.29
2019-02-06T03:11:42.875Z,77.41
2019-02-06T03:14:12.796Z,77.45
2019-02-06T03:16:42.294Z,77.24
2019-02-06T03:19:11.788Z,76.51
2019-02-06T03:21:41.356Z,76.29
2019-02-06T03:24:10.844Z,75.70
2019-02-06T03:26:40.343Z,76.20
2019-02-06T03:29:10.245Z,76.24
2019-02-06T03:31:39.677Z,76.56
2019-02-06T03:34:09.187Z,76.72
2019-02-06T03:36:40.878Z,76.43
2019-02-06T03:39:10.878Z,76.61
2019-02-06T03:41:40.417Z,76.69
2019-02-06T03:44:10.298Z,76.96
2019-02-06T03:46:39.724Z,76.27
2019-02-06T03:49:09.329Z,76.05
2019-02-06T03:51:38.804Z,76.51
2019-02-06T03:54:08.293Z,76.62
2019-02-06T03:56:37.847Z,76.80
2019-02-06T03:59:07.716Z,76.83
2019-02-06T04:01:37.243Z,77.08
2019-02-06T04:04:06.750Z,77.13
2019-02-06T04:06:36.209Z,77.13
2019-02-06T04:09:08.990Z,77.54
2019-02-06T04:11:38.547Z,77.37
2019-02-06T04:14:08.568Z,77.05
2019-02-06T04:16:38.106Z,77.41
2019-02-06T04:19:07.640Z,78.12
2019-02-06T04:21:37.115Z,78.20
2019-02-06T04:24:06.679Z,78.38
2019-02-06T04:26:36.154Z,78.24
2019-02-06T04:29:05.865Z,78.09
2019-02-06T04:31:35.576Z,78.66
2019-02-06T04:34:05.141Z,79.17
2019-02-06T04:36:34.604Z,79.18
2019-02-06T04:39:05.590Z,79.34
2019-02-06T04:41:35.112Z,79.28
2019-02-06T04:44:04.682Z,79.21
2019-02-06T04:46:34.202Z,79.70
2019-02-06T04:49:03.759Z,79.92
2019-02-06T04:51:33.301Z,79.15
2019-02-06T04:54:02.927Z,79.29
2019-02-06T04:56:32.443Z,79.31
2019-02-06T04:59:01.954Z,79.33
2019-02-06T05:01:31.516Z,78.91
2019-02-06T05:04:01.013Z,77.99
2019-02-06T05:06:30.565Z,77.25
2019-02-06T05:09:00.054Z,77.22
2019-02-06T05:11:29.736Z,77.03
2019-02-06T05:13:59.545Z,76.64
2019-02-06T05:16:29.057Z,76.41
2019-02-06T05:18:58.568Z,75.35
2019-02-06T05:21:28.139Z,74.74
2019-02-06T05:23:57.593Z,75.44
2019-02-06T05:26:27.129Z,74.74
2019-02-06T05:28:57.052Z,75.44
2019-02-06T05:31:26.518Z,75.63
2019-02-06T05:33:56.103Z,76.10
2019-02-06T05:36:25.612Z,75.45
2019-02-06T05:38:55.070Z,75.23
2019-02-06T05:41:24.582Z,74.59
2019-02-06T05:43:54.496Z,74.70
2019-02-06T05:46:24.035Z,74.77
2019-02-06T05:48:53.538Z,74.83
2019-02-06T05:51:23.048Z,73.84
2019-02-06T05:53:52.574Z,73.84
2019-02-06T05:56:22.079Z,74.15
2019-02-06T05:58:51.544Z,74.18
2019-02-06T06:01:24.698Z,73.60
2019-02-06T06:03:54.313Z,73.26
2019-02-06T06:06:23.807Z,74.01
2019-02-06T06:08:53.324Z,73.80
2019-02-06T06:11:22.808Z,73.40
2019-02-06T06:13:52.734Z,73.74
2019-02-06T06:16:22.271Z,74.11
2019-02-06T06:18:51.768Z,74.04
2019-02-06T06:21:21.251Z,73.71
2019-02-06T06:23:50.780Z,74.10
2019-02-06T06:26:20.236Z,73.98
2019-02-06T06:28:49.728Z,73.59
2019-02-06T06:31:19.154Z,74.00
2019-02-06T06:33:48.711Z,73.53
2019-02-06T06:36:18.253Z,73.12
2019-02-06T06:38:47.771Z,72.48
2019-02-06T06:41:17.276Z,72.11
2019-02-06T06:43:46.776Z,71.51
2019-02-06T06:46:16.389Z,70.51
2019-02-06T06:48:45.888Z,70.93
2019-02-06T06:51:15.427Z,71.17
2019-02-06T06:53:44.906Z,70.64
2019-02-06T06:56:14.430Z,70.55
2019-02-06T06:58:43.979Z,70.63
2019-02-06T07:01:13.555Z,70.94
2019-02-06T07:03:43.154Z,70.79
2019-02-06T07:06:12.632Z,70.87
2019-02-06T07:08:42.093Z,70.47
2019-02-06T07:11:11.650Z,70.36
2019-02-06T07:13:41.149Z,70.36
2019-02-06T07:16:10.830Z,70.87
2019-02-06T07:18:40.310Z,71.02
2019-02-06T07:21:09.766Z,70.74
2019-02-06T07:23:39.314Z,70.84
2019-02-06T07:26:08.868Z,70.64
2019-02-06T07:28:38.373Z,70.73
2019-02-06T07:31:08.159Z,70.29
2019-02-06T07:33:37.816Z,70.38
2019-02-06T07:36:07.289Z,70.32
2019-02-06T07:38:36.767Z,70.85
2019-02-06T07:41:06.269Z,70.99
2019-02-06T07:43:35.787Z,70.82
2019-02-06T07:46:05.720Z,70.58
2019-02-06T07:48:35.153Z,70.62
2019-02-06T07:51:04.672Z,70.80
2019-02-06T07:53:34.186Z,70.32
2019-02-06T07:56:03.695Z,70.80
2019-02-06T07:58:33.207Z,71.19
2019-02-06T08:01:03.058Z,71.16
2019-02-06T08:03:32.541Z,71.02
2019-02-06T08:06:02.087Z,71.12
2019-02-06T08:08:36.105Z,71.49
2019-02-06T08:11:03.223Z,71.47
2019-02-06T08:13:32.797Z,71.37
2019-02-06T08:16:02.728Z,71.70
2019-02-06T08:18:32.187Z,71.54
2019-02-06T08:21:01.686Z,72.00
2019-02-06T08:23:31.185Z,72.15
2019-02-06T08:26:00.724Z,71.57
2019-02-06T08:28:30.224Z,71.25
2019-02-06T08:31:00.142Z,70.58
2019-02-06T08:33:29.671Z,70.33
2019-02-06T08:35:59.256Z,70.75
2019-02-06T08:38:28.748Z,70.62
2019-02-06T08:40:58.205Z,70.71
2019-02-06T08:43:27.705Z,70.81
2019-02-06T08:45:57.207Z,70.71
2019-02-06T08:48:26.767Z,70.09
2019-02-06T08:50:56.385Z,69.48
2019-02-06T08:53:25.878Z,69.75
2019-02-06T08:55:55.362Z,70.12
2019-02-06T08:58:24.937Z,69.48
2019-02-06T09:00:54.796Z,68.98
2019-02-06T09:03:24.337Z,68.48
2019-02-06T09:05:53.863Z,68.67
2019-02-06T09:08:23.344Z,68.83
2019-02-06T09:10:52.943Z,68.58
2019-02-06T09:13:22.476Z,68.34
2019-02-06T09:15:52.187Z,67.76
2019-02-06T09:18:21.670Z,68.02
2019-02-06T09:20:52.752Z,66.91
2019-02-06T09:23:22.459Z,66.63
2019-02-06T09:25:52.008Z,66.40
2019-02-06T09:28:21.505Z,65.79
2019-02-06T09:30:51.038Z,66.11
2019-02-06T09:33:20.605Z,66.90
2019-02-06T09:35:50.126Z,67.50
2019-02-06T09:38:19.663Z,68.12
2019-02-06T09:40:49.705Z,68.52
2019-02-06T09:43:19.375Z,68.54
2019-02-06T09:45:49.168Z,68.08
2019-02-06T09:48:18.664Z,68.02
2019-02-06T09:50:48.218Z,67.81
2019-02-06T09:53:17.710Z,67.57
2019-02-06T09:55:47.296Z,66.68
2019-02-06T09:58:16.927Z,66.34
2019-02-06T10:00:46.772Z,66.38
2019-02-06T10:03:16.340Z,66.39
2019-02-06T10:05:45.887Z,66.48
2019-02-06T10:08:15.401Z,66.55
2019-02-06T10:10:44.968Z,66.57
2019-02-06T10:13:16.593Z,66.24
2019-02-06T10:15:45.939Z,66.17
2019-02-06T10:18:15.589Z,65.90
2019-02-06T10:20:48.076Z,65.59
2019-02-06T10:23:17.898Z,65.58
2019-02-06T10:25:47.710Z,65.81
2019-02-06T10:28:17.228Z,65.63
2019-02-06T10:30:48.993Z,65.11
2019-02-06T10:33:19.294Z,65.06
2019-02-06T10:35:51.947Z,64.86
2019-02-06T10:38:20.366Z,64.71
2019-02-06T10:40:49.888Z,64.00
2019-02-06T10:43:31.262Z,64.49
2019-02-06T10:45:50.980Z,64.43
2019-02-06T10:48:20.545Z,64.19
2019-02-06T10:50:52.085Z,64.89
2019-02-06T10:53:21.621Z,64.87
2019-02-06T10:55:53.926Z,65.07
2019-02-06T10:58:23.616Z,65.05
2019-02-06T11:00:56.314Z,65.33
2019-02-06T11:03:26.077Z,65.40
2019-02-06T11:05:56.000Z,65.55
2019-02-06T11:08:25.518Z,65.08
2019-02-06T11:10:55.112Z,64.92
2019-02-06T11:13:24.771Z,64.35
2019-02-06T11:15:54.306Z,64.31
2019-02-06T11:18:23.871Z,64.23
2019-02-06T11:20:53.450Z,64.03
2019-02-06T11:23:23.056Z,63.80
2019-02-06T11:25:52.621Z,63.17
2019-02-06T11:28:22.190Z,63.66
2019-02-06T11:30:51.750Z,63.91
2019-02-06T11:33:21.280Z,64.40
2019-02-06T11:35:50.835Z,64.78
2019-02-06T11:38:20.322Z,65.13
2019-02-06T11:40:50.043Z,64.93
2019-02-06T11:43:19.566Z,64.67
2019-02-06T11:45:49.351Z,64.82
2019-02-06T11:48:18.926Z,65.12
2019-02-06T11:50:48.439Z,64.67
2019-02-06T11:53:26.561Z,64.98
2019-02-06T11:55:57.021Z,64.72
2019-02-06T11:58:26.847Z,64.67
2019-02-06T12:01:21.160Z,65.30
2019-02-06T12:03:51.093Z,65.22
2019-02-06T12:06:20.612Z,65.87
2019-02-06T12:08:50.113Z,66.02
2019-02-06T12:11:19.637Z,67.19
2019-02-06T12:13:49.123Z,68.15
2019-02-06T12:16:18.839Z,68.68
2019-02-06T12:18:48.691Z,68.95
2019-02-06T12:21:18.271Z,69.54
2019-02-06T12:23:47.800Z,70.49
2019-02-06T12:26:17.328Z,70.67
2019-02-06T12:28:46.928Z,71.22
2019-02-06T12:31:16.439Z,71.28
2019-02-06T12:33:46.017Z,71.43
2019-02-06T12:36:16.010Z,71.62
2019-02-06T12:38:52.974Z,71.32
2019-02-06T12:41:16.989Z,71.37
2019-02-06T12:43:46.524Z,70.95
2019-02-06T12:46:16.078Z,70.74
2019-02-06T12:48:45.594Z,70.15
2019-02-06T12:51:15.192Z,70.05
2019-02-06T12:53:44.809Z,71.35
2019-02-06T12:56:14.365Z,72.12
2019-02-06T12:58:43.973Z,72.30
2019-02-06T13:01:13.473Z,72.48
2019-02-06T13:03:43.159Z,72.74
2019-02-06T13:06:12.709Z,72.95
2019-02-06T13:08:42.522Z,72.36
2019-02-06T13:11:12.087Z,72.02
2019-02-06T13:13:41.702Z,71.37
2019-02-06T13:16:11.206Z,71.12
2019-02-06T13:18:40.749Z,71.61
2019-02-06T13:21:10.286Z,71.26
2019-02-06T13:23:40.067Z,71.80
2019-02-06T13:26:09.561Z,72.15
2019-02-06T13:28:39.128Z,72.54
2019-02-06T13:31:08.670Z,72.07
2019-02-06T13:33:38.206Z,72.07
2019-02-06T13:36:10.299Z,70.92
2019-02-06T13:38:39.827Z,71.81
2019-02-06T13:41:09.332Z,71.47
2019-02-06T13:43:38.910Z,71.79
2019-02-06T13:46:08.606Z,71.62
2019-02-06T13:48:38.146Z,71.93
2019-02-06T13:51:16.361Z,72.31
2019-02-06T13:53:42.259Z,71.28
2019-02-06T13:56:10.657Z,71.11
2019-02-06T13:58:40.257Z,71.49
2019-02-06T14:01:09.884Z,71.82
2019-02-06T14:03:39.457Z,72.10
2019-02-06T14:06:11.448Z,72.06
2019-02-06T14:08:40.878Z,72.13
2019-02-06T14:11:10.490Z,72.42
2019-02-06T14:13:39.981Z,73.67
2019-02-06T14:16:10.301Z,73.73
2019-02-06T14:18:39.776Z,73.74
2019-02-06T14:21:09.601Z,73.59
2019-02-06T14:24:32.263Z,74.51
2019-02-06T14:27:36.895Z,74.34
2019-02-06T14:30:57.825Z,74.06
2019-02-06T14:33:53.028Z,74.18
2019-02-06T14:37:01.995Z,74.64
2019-02-06T14:39:56.981Z,75.01
2019-02-06T14:42:41.551Z,74.84
2019-02-06T14:46:11.999Z,75.97
2019-02-06T14:49:39.308Z,76.91
2019-02-06T14:52:58.750Z,77.76
2019-02-06T14:55:37.959Z,78.36
2019-02-06T14:58:35.600Z,79.38
2019-02-06T15:01:31.691Z,79.40
2019-02-06T15:04:40.999Z,79.50
2019-02-06T15:07:39.001Z,79.20
2019-02-06T15:10:28.828Z,78.93
2019-02-06T15:13:45.287Z,79.31
2019-02-06T15:17:04.640Z,79.57
2019-02-06T15:19:48.836Z,79.90
2019-02-06T15:23:11.716Z,80.46
2019-02-06T15:26:34.485Z,80.73
2019-02-06T15:29:41.513Z,80.99
2019-02-06T15:32:50.693Z,80.89
2019-02-06T15:36:05.072Z,80.85
2019-02-06T15:38:49.010Z,81.51
2019-02-06T15:41:56.240Z,81.62
2019-02-06T15:44:35.150Z,82.10
2019-02-06T15:47:54.429Z,82.73
2019-02-06T15:50:53.406Z,82.65
2019-02-06T15:54:12.880Z,82.91
2019-02-06T15:57:07.681Z,83.21
2019-02-06T16:00:03.700Z,83.18
2019-02-06T16:03:04.832Z,83.42
2019-02-06T16:06:00.249Z,83.68
2019-02-06T16:08:56.254Z,83.71
2019-02-06T16:11:53.039Z,83.79
2019-02-06T16:14:51.583Z,83.41
2019-02-06T16:17:55.232Z,83.59
2019-02-06T16:20:55.970Z,83.79
2019-02-06T16:24:08.412Z,83.84
2019-02-06T16:27:30.135Z,83.61
2019-02-06T16:30:38.180Z,83.83
2019-02-06T16:33:42.385Z,83.70
2019-02-06T16:36:47.155Z,83.80
2019-02-06T16:39:53.303Z,83.96
2019-02-06T16:43:11.481Z,84.15
2019-02-06T16:46:36.882Z,83.96
2019-02-06T16:49:40.505Z,84.27
2019-02-06T16:52:16.212Z,84.45
2019-02-06T16:55:17.518Z,84.08
2019-02-06T16:58:44.805Z,83.90
2019-02-06T17:01:39.572Z,83.71
2019-02-06T17:04:26.274Z,83.41
2019-02-06T17:07:51.826Z,83.05
2019-02-06T17:11:16.904Z,82.21
2019-02-06T17:14:26.082Z,82.11
2019-02-06T17:17:23.991Z,82.05
2019-02-06T17:20:42.348Z,82.02
2019-02-06T17:23:44.850Z,82.10
2019-02-06T17:26:30.264Z,82.47
2019-02-06T17:29:34.313Z,82.76
2019-02-06T17:32:36.076Z,82.94
2019-02-06T17:35:41.714Z,83.29
2019-02-06T17:38:33.128Z,83.09
2019-02-06T17:41:12.739Z,83.12
2019-02-06T17:44:26.144Z,83.10
2019-02-06T17:47:20.408Z,83.32
2019-02-06T17:50:28.470Z,83.16
2019-02-06T17:53:47.996Z,83.20
2019-02-06T17:56:18.206Z,83.45
2019-02-06T17:58:47.755Z,83.46
2019-02-06T18:01:30.656Z,83.95
2019-02-06T18:04:23.776Z,84.23
2019-02-06T18:06:53.440Z,84.96
2019-02-06T18:09:22.958Z,85.38
2019-02-06T18:11:53.227Z,85.34
2019-02-06T18:14:22.795Z,85.22
2019-02-06T18:16:52.325Z,84.78
2019-02-06T18:19:21.895Z,84.50
2019-02-06T18:21:52.028Z,83.88
2019-02-06T18:24:21.531Z,83.77
2019-02-06T18:26:51.075Z,83.35
2019-02-06T18:29:20.606Z,82.57
2019-02-06T18:31:50.098Z,81.90
2019-02-06T18:34:19.667Z,81.21
2019-02-06T18:36:49.185Z,81.07
2019-02-06T18:39:19.046Z,81.72
2019-02-06T18:41:48.764Z,81.64
2019-02-06T18:44:18.330Z,81.36
2019-02-06T18:46:49.615Z,81.32
2019-02-06T18:49:19.308Z,81.32
2019-02-06T18:51:48.890Z,80.79
2019-02-06T18:54:18.425Z,80.54
2019-02-06T18:56:48.375Z,80.76
2019-02-06T18:59:18.013Z,80.83
2019-02-06T19:01:47.589Z,80.88
2019-02-06T19:04:19.364Z,81.04
2019-02-06T19:06:49.002Z,81.02
2019-02-06T19:09:19.092Z,81.16
2019-02-06T19:11:48.764Z,80.90
2019-02-06T19:14:18.805Z,80.98
2019-02-06T19:16:48.463Z,80.97
2019-02-06T19:19:25.147Z,81.63
2019-02-06T19:21:49.761Z,81.97
2019-02-06T19:24:19.253Z,82.04
2019-02-06T19:26:48.777Z,82.12
2019-02-06T19:29:18.323Z,82.86
2019-02-06T19:31:48.056Z,82.78
2019-02-06T19:34:17.527Z,82.65
2019-02-06T19:36:47.083Z,83.55
2019-02-06T19:39:16.676Z,83.58
2019-02-06T19:41:46.516Z,83.03
2019-02-06T19:44:16.045Z,82.98
2019-02-06T19:46:45.984Z,82.96
2019-02-06T19:49:15.478Z,83.12
2019-02-06T19:51:45.025Z,83.31
2019-02-06T19:54:16.940Z,83.83
2019-02-06T19:56:46.527Z,83.80
2019-02-06T19:59:16.070Z,83.36
2019-02-06T20:01:45.630Z,82.83
2019-02-06T20:04:15.538Z,82.69
2019-02-06T20:06:45.213Z,82.35
2019-02-06T20:09:15.424Z,82.35
2019-02-06T20:11:45.001Z,82.53
2019-02-06T20:14:14.531Z,82.35
2019-02-06T20:16:44.016Z,82.67
2019-02-06T20:19:13.507Z,82.56
2019-02-06T20:21:43.430Z,82.50
2019-02-06T20:24:13.032Z,82.44
2019-02-06T20:26:42.625Z,82.27
2019-02-06T20:29:12.299Z,82.48
2019-02-06T20:31:41.830Z,82.85
2019-02-06T20:34:11.330Z,83.02
2019-02-06T20:36:40.812Z,83.30
2019-02-06T20:39:10.586Z,83.27
2019-02-06T20:41:40.175Z,83.19
2019-02-06T20:44:09.894Z,83.20
2019-02-06T20:46:39.592Z,82.89
2019-02-06T20:49:09.205Z,82.78
2019-02-06T20:51:38.890Z,83.09
2019-02-06T20:54:08.691Z,83.00
2019-02-06T20:56:38.560Z,82.74
2019-02-06T20:59:08.079Z,82.59
2019-02-06T21:01:39.623Z,82.04
2019-02-06T21:04:09.148Z,81.62
2019-02-06T21:06:38.639Z,81.90
2019-02-06T21:09:13.886Z,82.22
2019-02-06T21:11:43.434Z,82.42
2019-02-06T21:14:12.915Z,82.35
2019-02-06T21:16:42.531Z,82.27
2019-02-06T21:19:12.094Z,82.17
2019-02-06T21:21:41.580Z,82.26
2019-02-06T21:24:11.492Z,82.23
2019-02-06T21:26:41.089Z,82.41
2019-02-06T21:29:10.616Z,82.71
2019-02-06T21:31:40.550Z,83.02
2019-02-06T21:34:10.094Z,82.82
2019-02-06T21:36:39.576Z,82.97
2019-02-06T21:39:10.333Z,82.93
2019-02-06T21:41:39.861Z,82.58
2019-02-06T21:44:09.322Z,82.54
2019-02-06T21:46:38.912Z,82.37
2019-02-06T21:49:08.405Z,82.51
2019-02-06T21:51:37.992Z,82.03
2019-02-06T21:54:07.939Z,82.38
2019-02-06T21:56:37.469Z,82.22
2019-02-06T21:59:07.076Z,81.24
2019-02-06T22:01:36.560Z,81.12
2019-02-06T22:04:06.188Z,81.14
2019-02-06T22:06:35.666Z,81.09
2019-02-06T22:09:10.443Z,81.02
2019-02-06T22:11:39.948Z,80.88
2019-02-06T22:14:09.516Z,81.01
2019-02-06T22:16:39.032Z,81.29
2019-02-06T22:19:08.504Z,81.15
2019-02-06T22:21:38.308Z,81.06
2019-02-06T22:24:07.824Z,81.57
2019-02-06T22:26:37.309Z,81.53
2019-02-06T22:29:06.879Z,81.80
2019-02-06T22:31:36.534Z,81.68
2019-02-06T22:34:06.214Z,81.54
2019-02-06T22:36:36.035Z,81.28
2019-02-06T22:39:11.362Z,80.84
2019-02-06T22:41:40.894Z,80.27
2019-02-06T22:44:10.389Z,79.92
2019-02-06T22:46:39.909Z,80.04
2019-02-06T22:49:09.667Z,80.12
2019-02-06T22:51:39.199Z,80.44
2019-02-06T22:54:08.692Z,80.64
2019-02-06T22:56:38.180Z,80.70
2019-02-06T22:59:07.629Z,80.62
2019-02-06T23:01:47.851Z,80.46
2019-02-06T23:04:17.352Z,80.20
2019-02-06T23:06:46.893Z,79.74
2019-02-06T23:09:16.381Z,79.47
2019-02-06T23:11:45.900Z,79.81
2019-02-06T23:14:17.375Z,79.81
2019-02-06T23:16:46.867Z,78.92
2019-02-06T23:19:16.361Z,78.58
2019-02-06T23:21:45.867Z,78.41
2019-02-06T23:24:15.349Z,78.15
2019-02-06T23:26:44.838Z,78.10
2019-02-06T23:29:14.364Z,77.89
2019-02-06T23:31:43.899Z,77.82
2019-02-06T23:34:13.461Z,77.96
2019-02-06T23:36:43.109Z,77.89
2019-02-06T23:39:18.213Z,78.46
2019-02-06T23:41:47.795Z,78.37
2019-02-06T23:44:28.277Z,78.47
2019-02-06T23:46:48.824Z,77.35
2019-02-06T23:49:18.292Z,75.66
2019-02-06T23:51:47.756Z,75.82
2019-02-06T23:54:17.298Z,75.81
2019-02-06T23:56:46.780Z,75.82
2019-02-06T23:59:16.330Z,75.07
